createdAt,value
2018-02-19T00:01:04.339Z,29.63
2018-02-19T00:03:32.046Z,24.00
2018-02-19T00:05:59.719Z,28.50
2018-02-19T00:08:27.427Z,25.60
2018-02-19T00:10:55.086Z,30.00
2018-02-19T00:13:22.798Z,27.47
2018-02-19T00:15:50.463Z,25.77
2018-02-19T00:18:18.174Z,24.67
2018-02-19T00:20:46.639Z,27.57
2018-02-19T00:23:14.346Z,32.00
2018-02-19T00:25:42.016Z,26.30
2018-02-19T00:28:09.719Z,32.80
2018-02-19T00:30:37.387Z,31.33
2018-02-19T00:33:05.135Z,38.10
2018-02-19T00:35:32.798Z,29.70
2018-02-19T00:38:00.507Z,26.67
2018-02-19T00:40:28.176Z,27.23
2018-02-19T00:42:55.891Z,27.57
2018-02-19T00:45:24.322Z,29.73
2018-02-19T00:47:52.031Z,25.00
2018-02-19T00:50:20.462Z,29.37
2018-02-19T00:52:48.173Z,28.27
2018-02-19T00:55:16.603Z,29.93
2018-02-19T00:57:44.310Z,30.40
2018-02-19T01:00:12.773Z,27.87
2018-02-19T01:02:40.486Z,33.87
2018-02-19T01:05:08.151Z,29.10
2018-02-19T01:07:35.858Z,27.27
2018-02-19T01:10:03.554Z,30.57
2018-02-19T01:12:31.272Z,27.10
2018-02-19T01:14:58.978Z,31.23
2018-02-19T01:17:26.687Z,29.40
2018-02-19T01:19:54.355Z,29.03
2018-02-19T01:22:22.025Z,26.73
2018-02-19T01:24:50.499Z,27.40
2018-02-19T01:27:18.934Z,25.67
2018-02-19T01:29:46.639Z,31.97
2018-02-19T01:32:15.071Z,26.53
2018-02-19T01:34:42.780Z,22.33
2018-02-19T01:37:11.218Z,27.03
2018-02-19T01:39:38.935Z,29.40
2018-02-19T01:42:06.618Z,28.00
2018-02-19T01:44:34.327Z,24.57
2018-02-19T01:47:02.003Z,24.17
2018-02-19T01:49:30.475Z,29.50
2018-02-19T01:51:58.911Z,25.27
2018-02-19T01:54:26.651Z,29.70
2018-02-19T01:56:54.314Z,32.83
2018-02-19T01:59:22.026Z,22.97
2018-02-19T02:01:49.695Z,25.40
2018-02-19T02:04:18.178Z,26.00
2018-02-19T02:06:46.615Z,29.07
2018-02-19T02:09:14.331Z,29.93
2018-02-19T02:11:41.994Z,27.37
2018-02-19T02:14:09.698Z,25.00
2018-02-19T02:16:37.359Z,25.73
2018-02-19T02:19:05.832Z,26.80
2018-02-19T02:21:33.495Z,28.47
2018-02-19T02:24:01.204Z,28.47
2018-02-19T02:26:28.871Z,27.00
2018-02-19T02:28:56.586Z,28.50
2018-02-19T02:31:24.257Z,27.20
2018-02-19T02:33:51.966Z,25.60
2018-02-19T02:36:19.635Z,29.27
2018-02-19T02:38:47.356Z,26.60
2018-02-19T02:41:15.791Z,23.23
2018-02-19T02:43:43.503Z,27.13
2018-02-19T02:46:11.171Z,30.63
2018-02-19T02:48:38.896Z,28.27
2018-02-19T02:51:06.563Z,27.93
2018-02-19T02:53:35.048Z,28.97
2018-02-19T02:56:03.487Z,30.60
2018-02-19T02:58:31.200Z,24.50
2018-02-19T03:00:58.872Z,23.37
2018-02-19T03:03:26.643Z,27.63
2018-02-19T03:05:54.345Z,27.10
2018-02-19T03:08:22.062Z,24.67
2018-02-19T03:10:49.735Z,29.10
2018-02-19T03:13:17.447Z,25.43
2018-02-19T03:15:45.894Z,25.80
2018-02-19T03:18:13.619Z,25.13
2018-02-19T03:20:41.303Z,25.67
2018-02-19T03:23:09.015Z,23.27
2018-02-19T03:25:37.451Z,24.20
2018-02-19T03:28:05.163Z,27.87
2018-02-19T03:30:32.839Z,22.37
2018-02-19T03:33:00.551Z,26.87
2018-02-19T03:35:28.272Z,25.80
2018-02-19T03:37:55.984Z,25.60
2018-02-19T03:40:24.419Z,22.57
2018-02-19T03:42:52.087Z,29.83
2018-02-19T03:45:19.803Z,22.50
2018-02-19T03:47:47.475Z,26.63
2018-02-19T03:50:15.187Z,22.93
2018-02-19T03:52:42.861Z,23.80
2018-02-19T03:55:11.339Z,29.03
2018-02-19T03:57:39.772Z,24.43
2018-02-19T04:00:07.558Z,26.83
2018-02-19T04:02:35.224Z,29.50
2018-02-19T04:05:02.960Z,25.93
2018-02-19T04:07:30.633Z,25.67
2018-02-19T04:09:58.350Z,24.10
2018-02-19T04:12:26.015Z,26.97
2018-02-19T04:14:53.736Z,19.93
2018-02-19T04:17:22.176Z,22.67
2018-02-19T04:19:49.886Z,27.60
2018-02-19T04:22:18.343Z,24.10
2018-02-19T04:24:46.055Z,25.23
2018-02-19T04:27:13.726Z,19.47
2018-02-19T04:29:41.435Z,25.97
2018-02-19T04:32:09.874Z,26.50
2018-02-19T04:34:37.583Z,22.30
2018-02-19T04:37:06.007Z,22.97
2018-02-19T04:39:33.714Z,22.77
2018-02-19T04:42:02.144Z,19.37
2018-02-19T04:44:31.415Z,25.23
2018-02-19T04:46:59.126Z,25.07
2018-02-19T04:49:26.827Z,22.90
2018-02-19T04:51:54.491Z,24.47
2018-02-19T04:54:22.206Z,25.40
2018-02-19T04:56:49.871Z,26.40
2018-02-19T04:59:17.598Z,24.40
2018-02-19T05:01:45.265Z,23.53
2018-02-19T05:04:12.966Z,23.40
2018-02-19T05:06:41.391Z,21.13
2018-02-19T05:09:09.103Z,28.50
2018-02-19T05:11:37.534Z,25.63
2018-02-19T05:14:05.239Z,22.37
2018-02-19T05:16:33.681Z,23.33
2018-02-19T05:19:01.399Z,21.43
2018-02-19T05:21:29.067Z,23.40
2018-02-19T05:23:56.739Z,27.70
2018-02-19T05:26:24.442Z,27.30
2018-02-19T05:28:52.140Z,27.00
2018-02-19T05:31:21.532Z,23.43
2018-02-19T05:33:49.203Z,23.80
2018-02-19T05:36:16.922Z,24.07
2018-02-19T05:38:44.601Z,22.30
2018-02-19T05:41:13.076Z,26.07
2018-02-19T05:43:41.519Z,25.07
2018-02-19T05:46:09.232Z,24.90
2018-02-19T05:48:36.903Z,21.27
2018-02-19T05:51:04.625Z,22.63
2018-02-19T05:53:32.308Z,23.27
2018-02-19T05:56:00.788Z,26.30
2018-02-19T05:58:29.239Z,25.33
2018-02-19T06:00:56.959Z,25.93
2018-02-19T06:03:24.635Z,24.07
2018-02-19T06:05:52.319Z,25.10
2018-02-19T06:08:20.031Z,25.57
2018-02-19T06:10:47.702Z,24.67
2018-02-19T06:13:15.426Z,25.47
2018-02-19T06:15:43.864Z,22.33
2018-02-19T06:18:11.586Z,27.60
2018-02-19T06:20:39.258Z,24.00
2018-02-19T06:23:06.970Z,23.40
2018-02-19T06:25:35.402Z,25.07
2018-02-19T06:28:03.126Z,25.27
2018-02-19T06:30:30.818Z,35.27
2018-02-19T06:32:58.527Z,40.83
2018-02-19T06:35:26.960Z,29.77
2018-02-19T06:37:54.666Z,30.50
2018-02-19T06:40:23.098Z,30.73
2018-02-19T06:42:50.827Z,27.00
2018-02-19T06:45:18.502Z,28.83
2018-02-19T06:47:46.210Z,23.43
2018-02-19T06:50:13.882Z,26.07
2018-02-19T06:52:42.355Z,24.40
2018-02-19T06:55:10.026Z,26.30
2018-02-19T06:57:38.512Z,23.97
2018-02-19T07:00:06.203Z,26.40
2018-02-19T07:02:33.906Z,27.27
2018-02-19T07:05:01.595Z,28.40
2018-02-19T07:07:29.271Z,26.13
2018-02-19T07:09:56.988Z,25.63
2018-02-19T07:12:24.655Z,24.27
2018-02-19T07:14:53.122Z,27.80
2018-02-19T07:17:20.791Z,24.77
2018-02-19T07:19:48.526Z,24.07
2018-02-19T07:22:16.955Z,21.67
2018-02-19T07:24:44.675Z,24.30
2018-02-19T07:27:12.341Z,25.57
2018-02-19T07:29:40.055Z,27.23
2018-02-19T07:32:07.753Z,28.37
2018-02-19T07:34:35.470Z,25.10
2018-02-19T07:37:03.152Z,26.97
2018-02-19T07:39:30.864Z,26.10
2018-02-19T07:41:59.299Z,26.73
2018-02-19T07:44:27.008Z,23.03
2018-02-19T07:46:55.458Z,30.50
2018-02-19T07:49:23.171Z,26.80
2018-02-19T07:51:50.846Z,36.50
2018-02-19T07:54:18.584Z,30.73
2018-02-19T07:56:46.302Z,30.17
2018-02-19T07:59:14.015Z,31.20
2018-02-19T08:01:41.689Z,26.80
2018-02-19T08:04:09.396Z,27.90
2018-02-19T08:06:37.831Z,29.70
2018-02-19T08:09:05.561Z,27.40
2018-02-19T08:11:33.239Z,32.00
2018-02-19T08:14:00.955Z,27.60
2018-02-19T08:16:29.393Z,35.50
2018-02-19T08:18:57.058Z,33.40
2018-02-19T08:21:24.770Z,27.80
2018-02-19T08:23:52.506Z,29.30
2018-02-19T08:26:20.200Z,28.07
2018-02-19T08:28:47.877Z,24.83
2018-02-19T08:31:15.596Z,25.73
2018-02-19T08:33:44.032Z,26.37
2018-02-19T08:36:12.506Z,25.10
2018-02-19T08:38:40.948Z,25.23
2018-02-19T08:41:08.671Z,24.10
2018-02-19T08:43:36.334Z,27.00
2018-02-19T08:46:04.079Z,31.10
2018-02-19T08:48:31.750Z,29.93
2018-02-19T08:50:59.460Z,31.43
2018-02-19T08:53:27.139Z,28.30
2018-02-19T08:55:54.852Z,28.77
2018-02-19T08:58:23.292Z,25.03
2018-02-19T09:00:51.008Z,30.27
2018-02-19T09:03:18.679Z,24.50
2018-02-19T09:05:46.423Z,26.57
2018-02-19T09:08:14.087Z,27.17
2018-02-19T09:10:41.792Z,28.13
2018-02-19T09:13:09.453Z,29.03
2018-02-19T09:15:37.171Z,25.27
2018-02-19T09:18:04.843Z,28.80
2018-02-19T09:20:32.578Z,22.60
2018-02-19T09:23:01.051Z,24.13
2018-02-19T09:25:29.546Z,23.20
2018-02-19T09:27:57.227Z,21.93
2018-02-19T09:30:24.940Z,27.60
2018-02-19T09:32:52.618Z,23.13
2018-02-19T09:35:21.087Z,21.80
2018-02-19T09:37:49.515Z,24.90
2018-02-19T09:40:17.223Z,20.10
2018-02-19T09:42:45.668Z,21.50
2018-02-19T09:45:13.379Z,25.47
2018-02-19T09:47:41.047Z,22.67
2018-02-19T09:50:08.760Z,26.30
2018-02-19T09:52:36.435Z,24.47
2018-02-19T09:55:04.177Z,24.43
2018-02-19T09:57:31.844Z,23.27
2018-02-19T09:59:59.551Z,21.33
2018-02-19T10:02:27.211Z,24.20
2018-02-19T10:04:54.920Z,22.57
2018-02-19T10:07:22.584Z,24.67
2018-02-19T10:09:50.287Z,22.00
2018-02-19T10:12:17.946Z,21.00
2018-02-19T10:14:45.651Z,19.93
2018-02-19T10:17:13.316Z,23.63
2018-02-19T10:19:41.031Z,18.70
2018-02-19T10:22:08.710Z,20.20
2018-02-19T10:24:36.407Z,22.63
2018-02-19T10:27:04.080Z,22.33
2018-02-19T10:29:32.551Z,23.10
2018-02-19T10:32:00.223Z,23.80
2018-02-19T10:34:28.687Z,23.30
2018-02-19T10:36:56.354Z,21.60
2018-02-19T10:39:24.834Z,21.00
2018-02-19T10:41:53.302Z,19.10
2018-02-19T10:44:20.958Z,20.40
2018-02-19T10:46:48.663Z,16.40
2018-02-19T10:49:16.327Z,20.20
2018-02-19T10:51:44.027Z,18.33
2018-02-19T10:54:11.686Z,28.70
2018-02-19T10:56:39.392Z,20.40
2018-02-19T10:59:07.059Z,19.53
2018-02-19T11:01:34.763Z,20.13
2018-02-19T11:04:02.425Z,18.87
2018-02-19T11:06:30.132Z,20.10
2018-02-19T11:08:57.792Z,27.60
2018-02-19T11:11:25.488Z,19.40
2018-02-19T11:13:53.174Z,19.97
2018-02-19T11:16:20.879Z,21.70
2018-02-19T11:18:48.538Z,21.83
2018-02-19T11:21:16.287Z,22.97
2018-02-19T11:23:44.712Z,23.80
2018-02-19T11:26:12.420Z,40.80
2018-02-19T11:28:40.844Z,32.70
2018-02-19T11:31:08.539Z,21.73
2018-02-19T11:33:36.199Z,18.63
2018-02-19T11:36:04.670Z,23.23
2018-02-19T11:38:32.342Z,18.63
2018-02-19T11:41:00.820Z,23.43
2018-02-19T11:43:28.504Z,20.90
2018-02-19T11:45:56.224Z,17.63
2018-02-19T11:48:23.885Z,18.47
2018-02-19T11:50:51.599Z,19.07
2018-02-19T11:53:19.267Z,18.13
2018-02-19T11:55:46.992Z,20.80
2018-02-19T11:58:15.422Z,14.67
2018-02-19T12:00:43.899Z,17.47
2018-02-19T12:03:11.553Z,17.67
2018-02-19T12:05:39.262Z,16.53
2018-02-19T12:08:07.692Z,19.33
2018-02-19T12:10:35.387Z,18.70
2018-02-19T12:13:03.049Z,21.50
2018-02-19T12:15:31.528Z,20.60
2018-02-19T12:17:59.959Z,15.60
2018-02-19T12:20:27.689Z,22.60
2018-02-19T12:22:55.355Z,20.40
2018-02-19T12:25:23.056Z,24.47
2018-02-19T12:27:50.711Z,16.57
2018-02-19T12:30:18.420Z,19.67
2018-02-19T12:32:46.849Z,18.30
2018-02-19T12:35:14.552Z,16.83
2018-02-19T12:37:42.975Z,18.30
2018-02-19T12:40:10.735Z,20.83
2018-02-19T12:42:38.439Z,18.40
2018-02-19T12:45:06.144Z,18.03
2018-02-19T12:47:33.810Z,20.17
2018-02-19T12:50:01.519Z,15.50
2018-02-19T12:52:29.188Z,23.20
2018-02-19T12:54:57.615Z,20.23
2018-02-19T12:57:25.315Z,18.43
2018-02-19T12:59:52.978Z,21.13
2018-02-19T13:02:21.447Z,14.80
2018-02-19T13:04:49.115Z,18.03
2018-02-19T13:07:17.588Z,15.57
2018-02-19T13:09:45.246Z,15.13
2018-02-19T13:12:12.948Z,19.10
2018-02-19T13:14:40.603Z,15.80
2018-02-19T13:17:08.326Z,17.20
2018-02-19T13:19:35.991Z,18.90
2018-02-19T13:22:04.469Z,17.60
2018-02-19T13:24:32.903Z,21.03
2018-02-19T13:27:00.622Z,17.10
2018-02-19T13:29:29.042Z,18.00
2018-02-19T13:31:56.746Z,13.80
2018-02-19T13:34:25.182Z,19.00
2018-02-19T13:36:52.896Z,16.77
2018-02-19T13:39:21.333Z,15.50
2018-02-19T13:41:49.046Z,15.90
2018-02-19T13:44:16.732Z,20.40
2018-02-19T13:46:44.471Z,17.30
2018-02-19T13:49:12.159Z,19.93
2018-02-19T13:51:39.863Z,14.63
2018-02-19T13:54:08.291Z,15.80
2018-02-19T13:56:35.999Z,17.73
2018-02-19T13:59:04.427Z,14.03
2018-02-19T14:01:32.135Z,15.57
2018-02-19T14:04:00.569Z,14.53
2018-02-19T14:06:28.276Z,17.10
2018-02-19T14:08:55.976Z,18.80
2018-02-19T14:11:23.722Z,16.57
2018-02-19T14:13:51.391Z,18.83
2018-02-19T14:16:19.098Z,16.37
2018-02-19T14:18:46.782Z,16.57
2018-02-19T14:21:15.251Z,16.13
2018-02-19T14:23:42.916Z,20.67
2018-02-19T14:26:11.396Z,19.43
2018-02-19T14:28:39.835Z,26.57
2018-02-19T14:31:07.534Z,23.63
2018-02-19T14:33:35.970Z,21.27
2018-02-19T14:36:03.722Z,19.47
2018-02-19T14:38:31.389Z,20.03
2018-02-19T14:40:59.111Z,20.37
2018-02-19T14:43:26.770Z,17.93
2018-02-19T14:45:54.479Z,18.27
2018-02-19T14:48:22.167Z,22.50
2018-02-19T14:50:49.863Z,20.27
2018-02-19T14:53:18.772Z,25.23
2018-02-19T14:55:47.330Z,28.90
2018-02-19T14:58:14.992Z,23.40
2018-02-19T15:00:42.698Z,20.87
2018-02-19T15:03:10.359Z,18.77
2018-02-19T15:05:38.066Z,17.40
2018-02-19T15:08:05.735Z,20.40
2018-02-19T15:10:33.443Z,17.50
2018-02-19T15:13:01.115Z,17.73
2018-02-19T15:15:29.558Z,18.83
2018-02-19T15:17:57.269Z,15.87
2018-02-19T15:20:25.696Z,22.57
2018-02-19T15:22:53.407Z,21.27
2018-02-19T15:25:21.852Z,18.00
2018-02-19T15:27:50.152Z,18.40
2018-02-19T15:30:18.580Z,15.43
2018-02-19T15:32:46.295Z,18.33
2018-02-19T15:35:14.722Z,20.60
2018-02-19T15:37:42.431Z,15.37
2018-02-19T15:40:10.856Z,18.00
2018-02-19T15:42:38.564Z,15.60
2018-02-19T15:45:06.998Z,16.53
2018-02-19T15:47:34.703Z,18.53
2018-02-19T15:50:03.172Z,15.90
2018-02-19T15:52:31.650Z,43.57
2018-02-19T15:55:00.193Z,27.23
2018-02-19T15:57:27.904Z,49.20
2018-02-19T15:59:55.570Z,23.40
2018-02-19T16:02:23.272Z,22.87
2018-02-19T16:04:50.935Z,22.00
2018-02-19T16:07:18.634Z,22.27
2018-02-19T16:09:47.062Z,34.33
2018-02-19T16:12:14.763Z,24.87
2018-02-19T16:14:42.421Z,23.40
2018-02-19T16:17:10.970Z,23.00
2018-02-19T16:19:38.675Z,18.40
2018-02-19T16:22:07.152Z,19.83
2018-02-19T16:24:35.581Z,19.67
2018-02-19T16:27:03.292Z,21.97
2018-02-19T16:29:31.725Z,20.10
2018-02-19T16:31:59.426Z,23.70
2018-02-19T16:34:27.859Z,19.33
2018-02-19T16:36:56.331Z,19.77
2018-02-19T16:39:23.992Z,22.90
2018-02-19T16:41:51.696Z,21.83
2018-02-19T16:44:20.127Z,20.37
2018-02-19T16:46:47.842Z,20.23
2018-02-19T16:49:16.269Z,17.57
2018-02-19T16:51:43.974Z,24.83
2018-02-19T16:54:12.398Z,22.80
2018-02-19T16:56:40.107Z,24.37
2018-02-19T16:59:08.526Z,22.10
2018-02-19T17:01:36.235Z,24.90
2018-02-19T17:04:03.907Z,24.90
2018-02-19T17:06:32.391Z,20.47
2018-02-19T17:09:00.823Z,19.50
2018-02-19T17:11:28.519Z,20.80
2018-02-19T17:13:56.952Z,18.87
2018-02-19T17:16:24.660Z,21.63
2018-02-19T17:18:53.082Z,23.87
2018-02-19T17:21:21.707Z,20.27
2018-02-19T17:23:50.291Z,19.93
2018-02-19T17:26:18.739Z,22.17
2018-02-19T17:28:47.468Z,26.67
2018-02-19T17:31:16.331Z,20.60
2018-02-19T17:33:44.148Z,21.13
2018-02-19T17:36:13.531Z,22.00
2018-02-19T17:38:42.229Z,28.60
2018-02-19T17:41:10.775Z,30.00
2018-02-19T17:43:39.249Z,23.37
2018-02-19T17:46:06.912Z,22.90
2018-02-19T17:48:35.395Z,26.57
2018-02-19T17:51:03.835Z,22.03
2018-02-19T17:53:31.542Z,25.70
2018-02-19T17:55:59.972Z,23.13
2018-02-19T17:58:27.699Z,23.37
2018-02-19T18:00:55.386Z,29.33
2018-02-19T18:03:23.095Z,24.03
2018-02-19T18:05:51.520Z,24.20
2018-02-19T18:08:19.224Z,23.50
2018-02-19T18:10:47.656Z,26.27
2018-02-19T18:13:15.379Z,21.10
2018-02-19T18:15:43.102Z,28.53
2018-02-19T18:18:10.803Z,27.00
2018-02-19T18:20:38.527Z,25.30
2018-02-19T18:23:06.242Z,27.73
2018-02-19T18:25:33.911Z,26.27
2018-02-19T18:28:01.620Z,23.40
2018-02-19T18:30:30.068Z,21.80
2018-02-19T18:32:57.779Z,23.30
2018-02-19T18:35:26.218Z,22.70
2018-02-19T18:37:53.923Z,27.20
2018-02-19T18:40:21.595Z,24.20
2018-02-19T18:42:49.306Z,72.57
2018-02-19T18:45:16.970Z,51.67
2018-02-19T18:47:44.671Z,59.30
2018-02-19T18:50:12.335Z,41.40
2018-02-19T18:52:40.044Z,35.27
2018-02-19T18:55:07.760Z,40.63
2018-02-19T18:57:35.470Z,35.13
2018-02-19T19:00:03.205Z,40.30
2018-02-19T19:02:30.924Z,42.13
2018-02-19T19:04:58.600Z,42.37
2018-02-19T19:07:38.372Z,33.70
2018-02-19T19:10:17.967Z,34.03
2018-02-19T19:12:45.688Z,39.57
2018-02-19T19:15:13.375Z,27.87
2018-02-19T19:17:41.853Z,29.80
2018-02-19T19:20:10.312Z,28.00
2018-02-19T19:22:38.036Z,25.97
2018-02-19T19:25:05.722Z,25.67
2018-02-19T19:27:33.436Z,24.27
2018-02-19T19:30:01.118Z,22.30
2018-02-19T19:32:28.836Z,29.50
2018-02-19T19:34:56.504Z,34.33
2018-02-19T19:37:24.215Z,41.20
2018-02-19T19:39:51.896Z,37.77
2018-02-19T19:42:19.608Z,29.83
2018-02-19T19:44:47.298Z,26.07
2018-02-19T19:47:15.062Z,24.33
2018-02-19T19:49:42.715Z,24.20
2018-02-19T19:52:10.428Z,21.23
2018-02-19T19:54:38.123Z,25.30
2018-02-19T19:57:05.835Z,26.40
2018-02-19T19:59:34.279Z,23.30
2018-02-19T20:02:01.996Z,24.50
2018-02-19T20:04:29.667Z,24.50
2018-02-19T20:06:57.338Z,23.20
2018-02-19T20:09:25.068Z,27.83
2018-02-19T20:11:52.803Z,30.93
2018-02-19T20:14:21.300Z,25.13
2018-02-19T20:16:48.974Z,20.40
2018-02-19T20:19:16.684Z,25.30
2018-02-19T20:21:44.371Z,31.20
2018-02-19T20:24:13.072Z,27.63
2018-02-19T20:26:40.759Z,21.57
2018-02-19T20:29:08.508Z,27.20
2018-02-19T20:31:36.179Z,19.50
2018-02-19T20:34:03.900Z,23.63
2018-02-19T20:36:32.329Z,22.30
2018-02-19T20:39:00.060Z,24.90
2018-02-19T20:41:27.736Z,20.27
2018-02-19T20:43:55.472Z,20.17
2018-02-19T20:46:23.158Z,23.03
2018-02-19T20:48:50.871Z,21.53
2018-02-19T20:51:19.300Z,25.60
2018-02-19T20:53:47.023Z,21.33
2018-02-19T20:56:14.696Z,25.53
2018-02-19T20:58:42.410Z,22.07
2018-02-19T21:01:10.092Z,27.20
2018-02-19T21:03:38.615Z,22.33
2018-02-19T21:06:06.344Z,26.37
2018-02-19T21:08:34.064Z,23.90
2018-02-19T21:11:01.732Z,25.87
2018-02-19T21:13:29.448Z,27.90
2018-02-19T21:15:57.147Z,25.13
2018-02-19T21:18:24.864Z,26.50
2018-02-19T21:20:52.534Z,21.93
2018-02-19T21:23:20.257Z,22.63
2018-02-19T21:25:47.968Z,20.60
2018-02-19T21:28:15.711Z,21.80
2018-02-19T21:30:43.383Z,22.40
2018-02-19T21:33:11.109Z,19.73
2018-02-19T21:35:38.785Z,20.80
2018-02-19T21:38:06.511Z,17.50
2018-02-19T21:40:34.950Z,22.40
2018-02-19T21:43:02.665Z,21.93
2018-02-19T21:45:30.331Z,23.23
2018-02-19T21:47:58.068Z,21.80
2018-02-19T21:50:26.509Z,19.53
2018-02-19T21:52:54.224Z,21.20
2018-02-19T21:55:21.893Z,21.83
2018-02-19T21:57:49.623Z,19.63
2018-02-19T22:00:18.069Z,19.80
2018-02-19T22:02:45.780Z,21.70
2018-02-19T22:05:13.463Z,21.20
2018-02-19T22:07:41.175Z,21.57
2018-02-19T22:10:08.863Z,24.07
2018-02-19T22:12:36.568Z,30.87
2018-02-19T22:15:04.258Z,25.10
2018-02-19T22:17:31.967Z,25.03
2018-02-19T22:19:59.666Z,24.83
2018-02-19T22:22:27.335Z,21.70
2018-02-19T22:24:55.083Z,23.00
2018-02-19T22:27:22.752Z,32.23
2018-02-19T22:29:50.459Z,36.57
2018-02-19T22:32:18.140Z,31.20
2018-02-19T22:34:45.851Z,31.20
2018-02-19T22:37:14.287Z,31.10
2018-02-19T22:39:42.009Z,35.60
2018-02-19T22:42:09.675Z,39.90
2018-02-19T22:44:37.436Z,28.90
2018-02-19T22:47:05.095Z,35.50
2018-02-19T22:49:32.804Z,28.27
2018-02-19T22:52:00.471Z,23.10
2018-02-19T22:54:28.179Z,26.87
2018-02-19T22:56:55.871Z,38.40
2018-02-19T22:59:23.583Z,27.07
2018-02-19T23:01:51.247Z,27.77
2018-02-19T23:04:18.963Z,27.10
2018-02-19T23:06:46.655Z,29.97
2018-02-19T23:09:14.378Z,36.63
2018-02-19T23:11:42.058Z,24.50
2018-02-19T23:14:09.774Z,22.03
2018-02-19T23:16:37.443Z,25.10
2018-02-19T23:19:05.167Z,30.73
2018-02-19T23:21:32.835Z,26.87
2018-02-19T23:24:00.544Z,27.80
2018-02-19T23:26:28.220Z,31.10
2018-02-19T23:28:56.705Z,28.93
2018-02-19T23:31:24.381Z,27.17
2018-02-19T23:33:52.094Z,22.67
2018-02-19T23:36:19.762Z,26.43
2018-02-19T23:38:47.480Z,24.00
2018-02-19T23:41:15.156Z,44.20
2018-02-19T23:43:42.870Z,36.53
2018-02-19T23:46:11.311Z,27.60
2018-02-19T23:48:39.065Z,27.07
2018-02-19T23:51:06.730Z,23.47
2018-02-19T23:53:34.442Z,24.97
2018-02-19T23:56:02.111Z,27.50
2018-02-19T23:58:29.819Z,22.97
